Time,TemperatureF,DewpointF,PressureIn,WindDirection,WindDirectionDegrees,WindSpeedMPH,WindSpeedGustMPH,Humidity,HourlyPrecipIn,Conditions,Clouds,dailyrainin,SoftwareType,DateUTC
2013-08-19 00:13:00,56.4,55.0,30.13,West,270,2.0,-999.0,93,-99.99,,,0.00,weatherlink.com 1.10,2013-08-19 04:13:00,
2013-08-19 00:28:00,55.9,54.0,30.13,NW,319,0.0,-999.0,94,-99.99,,,0.00,weatherlink.com 1.10,2013-08-19 04:28:00,
2013-08-19 00:43:00,55.4,54.0,30.14,NW,319,0.0,-999.0,94,-99.99,,,0.00,weatherlink.com 1.10,2013-08-19 04:43:00,
2013-08-19 00:58:00,55.0,53.0,30.14,NW,319,0.0,-999.0,94,-99.99,,,0.00,weatherlink.com 1.10,2013-08-19 04:58:00,
2013-08-19 01:13:00,54.8,53.0,30.14,NW,319,0.0,-999.0,94,-99.99,,,0.00,weatherlink.com 1.10,2013-08-19 05:13:00,
2013-08-19 01:28:00,54.7,53.0,30.14,NW,318,0.0,-999.0,94,-99.99,,,0.00,weatherlink.com 1.10,2013-08-19 05:28:00,
2013-08-19 01:43:00,54.4,53.0,30.14,NW,318,0.0,-999.0,95,-99.99,,,0.00,weatherlink.com 1.10,2013-08-19 05:43:00,
2013-08-19 01:58:00,53.9,53.0,30.13,NW,319,0.0,-999.0,95,-99.99,,,0.00,weatherlink.com 1.10,2013-08-19 05:58:00,
2013-08-19 02:13:00,53.5,52.0,30.13,NW,319,0.0,-999.0,95,-99.99,,,0.00,weatherlink.com 1.10,2013-08-19 06:13:00,
2013-08-19 02:28:00,53.3,52.0,30.13,NW,319,0.0,-999.0,95,-99.99,,,0.00,weatherlink.com 1.10,2013-08-19 06:28:00,
2013-08-19 02:43:00,53.5,52.0,30.12,NW,319,0.0,-999.0,95,-99.99,,,0.00,weatherlink.com 1.10,2013-08-19 06:43:00,
2013-08-19 02:58:00,53.2,52.0,30.12,NW,319,0.0,-999.0,95,-99.99,,,0.00,weatherlink.com 1.10,2013-08-19 06:58:00,
2013-08-19 03:13:00,53.0,52.0,30.12,NW,318,0.0,-999.0,95,-99.99,,,0.00,weatherlink.com 1.10,2013-08-19 07:13:00,
2013-08-19 03:28:00,52.7,52.0,30.12,NW,318,0.0,-999.0,96,-99.99,,,0.00,weatherlink.com 1.10,2013-08-19 07:28:00,
2013-08-19 03:43:00,52.5,51.0,30.12,NW,319,0.0,-999.0,96,-99.99,,,0.00,weatherlink.com 1.10,2013-08-19 07:43:00,
2013-08-19 03:58:00,52.4,51.0,30.11,NW,318,0.0,-999.0,96,-99.99,,,0.00,weatherlink.com 1.10,2013-08-19 07:58:00,
2013-08-19 04:13:00,52.4,51.0,30.11,NW,319,0.0,-999.0,96,-99.99,,,0.00,weatherlink.com 1.10,2013-08-19 08:13:00,
2013-08-19 04:28:00,52.1,51.0,30.11,NW,319,0.0,-999.0,96,-99.99,,,0.00,weatherlink.com 1.10,2013-08-19 08:28:00,
2013-08-19 04:43:00,52.1,51.0,30.11,NW,319,0.0,-999.0,96,-99.99,,,0.00,weatherlink.com 1.10,2013-08-19 08:43:00,
2013-08-19 04:58:00,52.4,51.0,30.10,NW,319,0.0,-999.0,96,-99.99,,,0.00,weatherlink.com 1.10,2013-08-19 08:58:00,
2013-08-19 05:13:00,52.3,51.0,30.11,NW,319,0.0,-999.0,96,-99.99,,,0.00,weatherlink.com 1.10,2013-08-19 09:13:00,
2013-08-19 05:28:00,51.9,51.0,30.11,NW,319,0.0,-999.0,96,-99.99,,,0.00,weatherlink.com 1.10,2013-08-19 09:28:00,
2013-08-19 05:43:00,51.9,51.0,30.11,NW,318,2.0,-999.0,96,-99.99,,,0.00,weatherlink.com 1.10,2013-08-19 09:43:00,
2013-08-19 05:58:00,52.2,51.0,30.11,NW,319,0.0,-999.0,96,-99.99,,,0.00,weatherlink.com 1.10,2013-08-19 09:58:00,
2013-08-19 06:13:00,52.0,51.0,30.11,NW,319,0.0,-999.0,96,-99.99,,,0.00,weatherlink.com 1.10,2013-08-19 10:13:00,
2013-08-19 06:28:00,52.6,52.0,30.11,NW,318,0.0,-999.0,97,-99.99,,,0.00,weatherlink.com 1.10,2013-08-19 10:28:00,
2013-08-19 06:43:00,53.6,53.0,30.11,NW,318,0.0,-999.0,97,-99.99,,,0.00,weatherlink.com 1.10,2013-08-19 10:43:00,
2013-08-19 06:58:00,53.8,53.0,30.11,NW,318,0.0,-999.0,97,-99.99,,,0.00,weatherlink.com 1.10,2013-08-19 10:58:00,
2013-08-19 07:13:00,53.4,53.0,30.11,NW,319,0.0,-999.0,97,-99.99,,,0.00,weatherlink.com 1.10,2013-08-19 11:13:00,
2013-08-19 07:28:00,54.1,53.0,30.11,NW,319,0.0,-999.0,97,-99.99,,,0.00,weatherlink.com 1.10,2013-08-19 11:28:00,
2013-08-19 07:43:00,55.0,54.0,30.11,NW,319,0.0,-999.0,97,-99.99,,,0.00,weatherlink.com 1.10,2013-08-19 11:43:00,
2013-08-19 07:59:00,56.1,55.0,30.11,NW,319,0.0,-999.0,97,-99.99,,,0.00,weatherlink.com 1.10,2013-08-19 11:59:00,
2013-08-19 08:14:00,57.7,57.0,30.11,NW,318,0.0,-999.0,98,-99.99,,,0.00,weatherlink.com 1.10,2013-08-19 12:14:00,
2013-08-19 08:29:00,59.0,59.0,30.11,NW,319,0.0,-999.0,98,-99.99,,,0.00,weatherlink.com 1.10,2013-08-19 12:29:00,
2013-08-19 08:44:00,60.9,60.0,30.11,NW,319,0.0,-999.0,98,-99.99,,,0.00,weatherlink.com 1.10,2013-08-19 12:44:00,
2013-08-19 08:59:00,62.5,62.0,30.10,NW,319,0.0,-999.0,98,-99.99,,,0.00,weatherlink.com 1.10,2013-08-19 12:59:00,
2013-08-19 09:14:00,64.5,64.0,30.10,NW,324,1.0,-999.0,98,-99.99,,,0.00,weatherlink.com 1.10,2013-08-19 13:14:00,
2013-08-19 09:29:00,65.4,64.0,30.09,SE,137,0.0,-999.0,95,-99.99,,,0.00,weatherlink.com 1.10,2013-08-19 13:29:00,
2013-08-19 09:44:00,66.9,65.0,30.09,SE,137,1.0,-999.0,93,-99.99,,,0.00,weatherlink.com 1.10,2013-08-19 13:44:00,
2013-08-19 09:59:00,67.5,64.0,30.09,SSW,195,3.0,-999.0,89,-99.99,,,0.00,weatherlink.com 1.10,2013-08-19 13:59:00,
2013-08-19 10:14:00,68.5,65.0,30.09,SSW,212,0.0,-999.0,88,-99.99,,,0.00,weatherlink.com 1.10,2013-08-19 14:14:00,
2013-08-19 10:29:00,70.6,65.0,30.09,SSW,200,3.0,-999.0,82,-99.99,,,0.00,weatherlink.com 1.10,2013-08-19 14:29:00,
2013-08-19 10:44:00,71.9,66.0,30.09,South,182,0.0,-999.0,82,-99.99,,,0.00,weatherlink.com 1.10,2013-08-19 14:44:00,
2013-08-19 10:59:00,74.1,67.0,30.09,SSW,194,0.0,-999.0,78,-99.99,,,0.00,weatherlink.com 1.10,2013-08-19 14:59:00,
2013-08-19 11:14:00,74.8,68.0,30.09,SSW,192,1.0,-999.0,78,-99.99,,,0.00,weatherlink.com 1.10,2013-08-19 15:14:00,
2013-08-19 11:29:00,75.4,67.0,30.08,WNW,286,1.0,-999.0,76,-99.99,,,0.00,weatherlink.com 1.10,2013-08-19 15:29:00,
2013-08-19 11:44:00,76.2,67.0,30.08,SW,218,7.0,-999.0,72,-99.99,,,0.00,weatherlink.com 1.10,2013-08-19 15:44:00,
2013-08-19 11:59:00,75.9,66.0,30.07,SW,235,5.0,-999.0,71,-99.99,,,0.00,weatherlink.com 1.10,2013-08-19 15:59:00,
2013-08-19 12:14:00,76.4,66.0,30.07,SSW,210,6.0,-999.0,71,-99.99,,,0.00,weatherlink.com 1.10,2013-08-19 16:14:00,
2013-08-19 12:29:00,75.5,64.0,30.07,WSW,242,5.0,-999.0,67,-99.99,,,0.00,weatherlink.com 1.10,2013-08-19 16:29:00,
2013-08-19 12:44:00,74.6,65.0,30.06,West,260,8.0,-999.0,72,-99.99,,,0.00,weatherlink.com 1.10,2013-08-19 16:44:00,
2013-08-19 12:59:00,75.0,65.0,30.05,West,281,4.0,-999.0,70,-99.99,,,0.00,weatherlink.com 1.10,2013-08-19 16:59:00,
2013-08-19 13:15:00,76.2,65.0,30.04,WSW,240,10.0,-999.0,69,-99.99,,,0.00,weatherlink.com 1.10,2013-08-19 17:15:00,
2013-08-19 13:30:00,77.1,66.0,30.04,WSW,242,10.0,-999.0,69,-99.99,,,0.00,weatherlink.com 1.10,2013-08-19 17:30:00,
2013-08-19 13:45:00,76.8,66.0,30.04,WNW,284,10.0,-999.0,69,-99.99,,,0.00,weatherlink.com 1.10,2013-08-19 17:45:00,
2013-08-19 14:00:00,77.3,65.0,30.03,SSW,209,7.0,-999.0,67,-99.99,,,0.00,weatherlink.com 1.10,2013-08-19 18:00:00,
2013-08-19 14:15:00,76.7,62.0,30.03,WSW,248,11.0,-999.0,61,-99.99,,,0.00,weatherlink.com 1.10,2013-08-19 18:15:00,
2013-08-19 14:30:00,78.0,65.0,30.03,SW,223,6.0,-999.0,64,-99.99,,,0.00,weatherlink.com 1.10,2013-08-19 18:30:00,
2013-08-19 14:45:00,77.9,66.0,30.03,WSW,252,8.0,-999.0,67,-99.99,,,0.00,weatherlink.com 1.10,2013-08-19 18:45:00,
2013-08-19 15:00:00,78.7,63.0,30.02,WSW,244,12.0,-999.0,59,-99.99,,,0.00,weatherlink.com 1.10,2013-08-19 19:00:00,
2013-08-19 15:15:00,79.1,65.0,30.02,WSW,249,10.0,-999.0,63,-99.99,,,0.00,weatherlink.com 1.10,2013-08-19 19:15:00,
2013-08-19 15:30:00,78.8,64.0,30.02,SSW,207,8.0,-999.0,61,-99.99,,,0.00,weatherlink.com 1.10,2013-08-19 19:30:00,
2013-08-19 15:45:00,78.9,65.0,30.02,West,268,3.0,-999.0,62,-99.99,,,0.00,weatherlink.com 1.10,2013-08-19 19:45:00,
2013-08-19 16:00:00,78.7,65.0,30.02,WSW,252,5.0,-999.0,63,-99.99,,,0.00,weatherlink.com 1.10,2013-08-19 20:00:00,
2013-08-19 16:15:00,78.4,65.0,30.02,West,259,4.0,-999.0,63,-99.99,,,0.00,weatherlink.com 1.10,2013-08-19 20:15:00,
2013-08-19 16:30:00,78.7,65.0,30.02,WNW,290,4.0,-999.0,64,-99.99,,,0.00,weatherlink.com 1.10,2013-08-19 20:30:00,
2013-08-19 16:45:00,78.3,65.0,30.02,West,280,6.0,-999.0,63,-99.99,,,0.00,weatherlink.com 1.10,2013-08-19 20:45:00,
2013-08-19 17:00:00,77.1,63.0,30.02,WSW,253,6.0,-999.0,63,-99.99,,,0.00,weatherlink.com 1.10,2013-08-19 21:00:00,
2013-08-19 17:15:00,77.4,64.0,30.02,WSW,240,6.0,-999.0,64,-99.99,,,0.00,weatherlink.com 1.10,2013-08-19 21:15:00,
2013-08-19 17:30:00,75.8,64.0,30.03,SW,234,5.0,-999.0,67,-99.99,,,0.00,weatherlink.com 1.10,2013-08-19 21:30:00,
2013-08-19 17:45:00,75.7,64.0,30.02,SW,231,7.0,-999.0,67,-99.99,,,0.00,weatherlink.com 1.10,2013-08-19 21:45:00,
2013-08-19 18:00:00,75.7,64.0,30.02,WSW,247,8.0,-999.0,67,-99.99,,,0.00,weatherlink.com 1.10,2013-08-19 22:00:00,
2013-08-19 18:15:00,76.0,64.0,30.02,WSW,244,5.0,-999.0,67,-99.99,,,0.00,weatherlink.com 1.10,2013-08-19 22:15:00,
2013-08-19 18:30:00,76.1,64.0,30.02,WSW,241,2.0,-999.0,66,-99.99,,,0.00,weatherlink.com 1.10,2013-08-19 22:30:00,
2013-08-19 18:45:00,75.0,64.0,30.02,WSW,249,6.0,-999.0,68,-99.99,,,0.00,weatherlink.com 1.10,2013-08-19 22:45:00,
2013-08-19 19:00:00,74.9,63.0,30.01,WSW,240,10.0,-999.0,67,-99.99,,,0.00,weatherlink.com 1.10,2013-08-19 23:00:00,
2013-08-19 19:15:00,74.7,64.0,30.01,SW,228,4.0,-999.0,69,-99.99,,,0.00,weatherlink.com 1.10,2013-08-19 23:15:00,
2013-08-19 19:30:00,74.7,64.0,30.01,WSW,237,3.0,-999.0,69,-99.99,,,0.00,weatherlink.com 1.10,2013-08-19 23:30:00,
2013-08-19 19:45:00,74.1,64.0,30.01,WSW,254,2.0,-999.0,71,-99.99,,,0.00,weatherlink.com 1.10,2013-08-19 23:45:00,
2013-08-19 20:00:00,73.1,63.0,30.02,WSW,244,3.0,-999.0,71,-99.99,,,0.00,weatherlink.com 1.10,2013-08-20 00:00:00,
2013-08-19 20:15:00,71.9,62.0,30.02,WSW,254,2.0,-999.0,72,-99.99,,,0.00,weatherlink.com 1.10,2013-08-20 00:15:00,
2013-08-19 20:30:00,71.0,62.0,30.01,SW,229,0.0,-999.0,74,-99.99,,,0.00,weatherlink.com 1.10,2013-08-20 00:30:00,
2013-08-19 21:15:00,67.0,61.0,30.01,SW,229,0.0,-999.0,80,-99.99,,,0.00,weatherlink.com 1.10,2013-08-20 01:15:00,
2013-08-19 21:30:00,65.6,60.0,30.02,SW,229,0.0,-999.0,83,-99.99,,,0.00,weatherlink.com 1.10,2013-08-20 01:30:00,
2013-08-19 21:44:00,64.6,60.0,30.02,SW,229,0.0,-999.0,86,-99.99,,,0.00,weatherlink.com 1.10,2013-08-20 01:44:00,
2013-08-19 22:00:00,64.2,60.0,30.02,SW,229,0.0,-999.0,87,-99.99,,,0.00,weatherlink.com 1.10,2013-08-20 02:00:00,
2013-08-19 22:15:00,63.4,60.0,30.02,SW,229,0.0,-999.0,88,-99.99,,,0.00,weatherlink.com 1.10,2013-08-20 02:15:00,
2013-08-19 22:30:00,62.9,60.0,30.02,SW,229,0.0,-999.0,89,-99.99,,,0.00,weatherlink.com 1.10,2013-08-20 02:30:00,
2013-08-19 22:45:00,62.3,59.0,30.02,SW,229,0.0,-999.0,90,-99.99,,,0.00,weatherlink.com 1.10,2013-08-20 02:45:00,
2013-08-19 23:00:00,62.0,59.0,30.02,SW,229,0.0,-999.0,91,-99.99,,,0.00,weatherlink.com 1.10,2013-08-20 03:00:00,
2013-08-19 23:15:00,61.3,59.0,30.02,SW,229,0.0,-999.0,92,-99.99,,,0.00,weatherlink.com 1.10,2013-08-20 03:15:00,
2013-08-19 23:30:00,61.1,59.0,30.02,SW,229,0.0,-999.0,93,-99.99,,,0.00,weatherlink.com 1.10,2013-08-20 03:30:00,
2013-08-19 23:45:00,60.7,59.0,30.02,SW,229,0.0,-999.0,93,-99.99,,,0.00,weatherlink.com 1.10,2013-08-20 03:45:00,